createdAt,value
2023-03-05T18:04:21.015Z,5.00
2023-03-05T18:07:24.509Z,1.33
2023-03-05T18:11:58.965Z,5.87
2023-03-05T18:15:03.638Z,1.10
2023-03-05T18:18:07.321Z,3.70
2023-03-05T18:21:10.575Z,5.27
2023-03-05T18:24:14.024Z,5.18
2023-03-05T18:31:31.251Z,0.68
2023-03-05T18:34:34.642Z,1.00
2023-03-05T18:37:39.702Z,1.00
2023-03-05T18:40:43.653Z,2.38
2023-03-05T18:43:46.869Z,1.60
2023-03-05T18:46:51.460Z,1.80
2023-03-05T18:49:56.268Z,3.90
2023-03-05T18:52:59.647Z,1.50
2023-03-05T18:56:03.137Z,5.40
2023-03-05T18:59:06.534Z,2.90
2023-03-05T19:02:16.054Z,4.50
2023-03-05T19:05:26.941Z,1.38
2023-03-05T19:08:30.549Z,1.55
2023-03-05T19:11:33.835Z,4.82
2023-03-05T19:14:37.057Z,2.90
2023-03-05T19:17:42.183Z,4.82
2023-03-05T19:20:45.495Z,6.03
2023-03-05T19:23:48.743Z,4.20
2023-03-05T19:27:13.419Z,5.40
2023-03-05T19:35:22.119Z,2.35
2023-03-05T19:38:28.092Z,2.10
2023-03-05T19:41:31.474Z,5.03
2023-03-05T19:48:09.095Z,5.10
2023-03-05T19:51:14.580Z,2.58
2023-03-05T19:54:18.483Z,3.13
2023-03-05T19:57:23.963Z,3.85
2023-03-05T20:00:27.460Z,6.93
2023-03-05T20:03:31.277Z,9.77
2023-03-05T20:06:36.003Z,2.85
2023-03-05T20:09:39.276Z,5.88
2023-03-05T20:17:48.007Z,3.03
2023-03-05T20:20:55.372Z,4.72
2023-03-05T20:24:03.490Z,3.80
2023-03-05T20:27:07.186Z,2.90
2023-03-05T20:30:12.772Z,4.13
2023-03-05T20:33:18.757Z,14.68
2023-03-05T20:36:25.789Z,7.13
2023-03-05T20:39:30.936Z,6.47
2023-03-05T20:42:41.368Z,8.75
2023-03-05T20:45:47.574Z,6.25
2023-03-05T20:48:54.410Z,5.10
2023-03-05T20:52:00.419Z,5.30
2023-03-05T20:55:07.919Z,5.45
2023-03-05T20:58:11.878Z,6.97
2023-03-05T21:01:16.565Z,7.68
2023-03-05T21:04:20.145Z,11.30
2023-03-05T21:07:25.975Z,6.45
2023-03-05T21:10:30.941Z,4.47
2023-03-05T21:13:36.065Z,4.70
2023-03-05T21:16:45.195Z,13.13
2023-03-05T21:19:52.737Z,4.82
2023-03-05T21:22:57.118Z,4.70
2023-03-05T21:26:10.335Z,4.60
2023-03-05T21:29:18.106Z,3.33
2023-03-05T21:32:24.781Z,3.75
2023-03-05T21:35:29.350Z,4.90
2023-03-05T21:38:34.125Z,4.47
2023-03-05T21:41:41.990Z,7.20
2023-03-05T21:44:45.654Z,7.50
2023-03-05T21:47:49.446Z,9.20
2023-03-05T21:50:52.890Z,8.88
2023-03-05T21:53:56.337Z,6.65
2023-03-05T21:57:01.098Z,6.10
2023-03-05T22:00:05.808Z,6.45
2023-03-05T22:03:15.798Z,3.25
2023-03-05T22:06:20.220Z,4.32
2023-03-05T22:09:23.687Z,9.77
2023-03-05T22:13:07.020Z,7.22
2023-03-05T22:16:11.342Z,7.78
2023-03-05T22:19:17.845Z,29.20
2023-03-05T22:22:21.266Z,34.17
2023-03-05T22:25:24.888Z,22.92
2023-03-05T22:28:30.330Z,12.77
2023-03-05T22:31:34.071Z,6.10
2023-03-05T22:34:37.886Z,33.53
2023-03-05T22:37:42.233Z,10.93
2023-03-05T22:40:47.439Z,8.07
2023-03-05T22:43:52.414Z,5.97
2023-03-05T22:46:55.995Z,1.27
2023-03-05T22:50:02.442Z,0.82
2023-03-05T22:53:06.812Z,0.63
2023-03-05T22:56:11.272Z,2.13
2023-03-05T22:59:16.238Z,0.93
2023-03-05T23:02:19.894Z,2.40
2023-03-05T23:05:24.292Z,1.05
2023-03-05T23:08:27.782Z,0.50
2023-03-05T23:11:31.532Z,0.73
2023-03-05T23:14:36.356Z,1.38
2023-03-05T23:17:40.352Z,0.47
2023-03-05T23:20:46.988Z,0.65
2023-03-05T23:23:52.602Z,1.88
2023-03-05T23:26:56.147Z,4.50
2023-03-05T23:30:19.671Z,1.38
2023-03-05T23:33:25.571Z,0.77
2023-03-05T23:36:29.045Z,0.43
2023-03-05T23:39:33.379Z,2.22
2023-03-05T23:42:38.222Z,1.27
2023-03-05T23:45:42.741Z,1.05
2023-03-05T23:48:47.659Z,0.70
2023-03-05T23:51:51.076Z,0.50
2023-03-05T23:54:56.833Z,1.40
2023-03-05T23:58:01.127Z,0.40
